createdAt,value
2023-03-22T00:00:47.435Z,7.07
2023-03-22T00:03:51.697Z,7.10
2023-03-22T00:06:54.392Z,7.15
2023-03-22T00:09:57.009Z,7.15
2023-03-22T00:13:01.096Z,7.07
2023-03-22T00:16:05.179Z,6.85
2023-03-22T00:19:07.989Z,7.05
2023-03-22T00:22:11.658Z,7.32
2023-03-22T00:25:14.266Z,7.07
2023-03-22T00:28:18.363Z,6.90
2023-03-22T00:31:21.238Z,6.82
2023-03-22T00:34:23.994Z,6.90
2023-03-22T00:37:27.977Z,7.22
2023-03-22T00:40:31.029Z,7.47
2023-03-22T00:43:34.234Z,6.93
2023-03-22T00:46:37.581Z,8.15
2023-03-22T00:49:40.496Z,8.05
2023-03-22T00:52:43.465Z,7.53
2023-03-22T00:55:46.575Z,7.68
2023-03-22T00:58:49.424Z,7.90
2023-03-22T01:01:52.212Z,7.90
2023-03-22T01:04:55.111Z,7.60
2023-03-22T01:08:02.735Z,7.82
2023-03-22T01:11:07.128Z,7.30
2023-03-22T01:14:10.262Z,7.33
2023-03-22T01:17:13.287Z,7.25
2023-03-22T01:20:16.267Z,7.43
2023-03-22T01:23:18.846Z,7.50
2023-03-22T01:26:21.620Z,7.72
2023-03-22T01:29:24.925Z,7.03
2023-03-22T01:32:28.084Z,7.47
2023-03-22T01:35:30.972Z,6.82
2023-03-22T01:38:33.909Z,7.05
2023-03-22T01:41:38.028Z,7.18
2023-03-22T01:45:13.897Z,7.30
2023-03-22T01:48:47.104Z,7.45
2023-03-22T01:51:53.582Z,7.07
2023-03-22T01:55:06.362Z,7.13
2023-03-22T01:58:21.512Z,7.20
2023-03-22T02:01:29.975Z,7.07
2023-03-22T02:04:39.230Z,6.78
2023-03-22T02:07:45.027Z,6.82
2023-03-22T02:10:48.513Z,6.80
2023-03-22T02:14:13.187Z,7.50
2023-03-22T02:17:59.704Z,7.10
2023-03-22T02:21:20.874Z,7.03
2023-03-22T02:24:35.033Z,7.35
2023-03-22T02:28:08.249Z,6.88
2023-03-22T02:31:49.097Z,6.88
2023-03-22T02:35:07.451Z,6.67
2023-03-22T02:38:34.218Z,6.60
2023-03-22T02:42:03.303Z,6.65
2023-03-22T02:45:15.498Z,6.82
2023-03-22T02:48:28.070Z,6.97
2023-03-22T02:51:41.153Z,6.67
2023-03-22T02:54:50.906Z,6.78
2023-03-22T02:58:19.464Z,6.68
2023-03-22T03:01:33.430Z,6.97
2023-03-22T03:04:46.454Z,6.85
2023-03-22T03:07:55.788Z,6.70
2023-03-22T03:10:59.046Z,6.45
2023-03-22T03:14:02.305Z,6.38
2023-03-22T03:17:14.235Z,6.50
2023-03-22T03:20:24.269Z,6.80
2023-03-22T03:23:46.879Z,6.20
2023-03-22T03:27:04.698Z,6.25
2023-03-22T03:30:16.599Z,6.72
2023-03-22T03:33:22.032Z,7.13
2023-03-22T03:36:26.294Z,6.80
2023-03-22T03:39:32.921Z,6.47
2023-03-22T03:42:38.362Z,6.90
2023-03-22T03:45:41.718Z,6.65
2023-03-22T03:48:48.497Z,6.43
2023-03-22T03:51:54.804Z,6.18
2023-03-22T03:54:57.715Z,7.00
2023-03-22T03:58:06.332Z,6.38
2023-03-22T04:01:09.091Z,5.80
2023-03-22T04:04:14.209Z,6.32
2023-03-22T04:07:23.694Z,6.80
2023-03-22T04:10:26.315Z,6.60
2023-03-22T04:13:29.929Z,6.50
2023-03-22T04:16:35.912Z,6.13
2023-03-22T04:19:39.003Z,6.40
2023-03-22T04:22:42.289Z,6.55
2023-03-22T04:25:50.664Z,6.47
2023-03-22T04:29:04.371Z,6.40
2023-03-22T04:32:08.462Z,6.25
2023-03-22T04:35:16.795Z,6.72
2023-03-22T04:38:20.208Z,6.25
2023-03-22T04:41:23.118Z,6.40
2023-03-22T04:44:28.372Z,5.63
2023-03-22T04:47:31.548Z,6.38
2023-03-22T04:50:34.968Z,6.80
2023-03-22T04:53:40.440Z,5.93
2023-03-22T04:56:44.855Z,6.13
2023-03-22T04:59:49.241Z,6.18
2023-03-22T05:02:51.924Z,5.97
2023-03-22T05:06:06.650Z,5.82
2023-03-22T05:09:32.087Z,6.10
2023-03-22T05:12:35.236Z,5.83
2023-03-22T05:15:51.900Z,6.15
2023-03-22T05:19:02.520Z,6.00
2023-03-22T05:22:05.670Z,5.60
2023-03-22T05:25:21.697Z,5.90
2023-03-22T05:28:27.316Z,6.30
2023-03-22T05:31:47.855Z,5.90
2023-03-22T05:34:51.497Z,5.90
2023-03-22T05:38:10.490Z,6.07
2023-03-22T05:41:17.097Z,5.30
2023-03-22T05:44:19.831Z,5.97
2023-03-22T05:47:44.090Z,5.50
2023-03-22T05:50:49.980Z,5.60
2023-03-22T05:53:54.544Z,5.60
2023-03-22T05:57:01.596Z,5.22
2023-03-22T06:00:16.420Z,5.97
2023-03-22T06:03:40.351Z,5.57
2023-03-22T06:06:57.146Z,5.68
2023-03-22T06:10:14.013Z,5.57
2023-03-22T06:13:18.031Z,5.40
2023-03-22T06:16:21.343Z,5.57
2023-03-22T06:19:25.733Z,5.32
2023-03-22T06:22:30.651Z,5.40
2023-03-22T06:25:33.805Z,5.53
2023-03-22T06:28:37.888Z,5.88
2023-03-22T06:31:41.628Z,5.60
2023-03-22T06:34:45.030Z,5.50
2023-03-22T06:37:49.049Z,6.65
2023-03-22T06:40:51.668Z,5.20
2023-03-22T06:43:55.647Z,5.90
2023-03-22T06:47:14.319Z,6.30
2023-03-22T06:50:46.357Z,5.30
2023-03-22T06:53:54.199Z,5.80
2023-03-22T06:56:57.906Z,5.95
2023-03-22T07:00:00.662Z,5.10
2023-03-22T07:03:03.555Z,5.90
2023-03-22T07:06:15.029Z,5.32
2023-03-22T07:09:24.156Z,5.07
2023-03-22T07:12:29.777Z,5.47
2023-03-22T07:15:36.682Z,5.30
2023-03-22T07:18:44.965Z,6.00
2023-03-22T07:21:47.845Z,6.07
2023-03-22T07:24:57.202Z,5.57
2023-03-22T07:28:04.081Z,5.20
2023-03-22T07:31:11.726Z,5.07
2023-03-22T07:34:47.207Z,5.43
2023-03-22T07:37:53.267Z,5.10
2023-03-22T07:41:06.497Z,5.20
2023-03-22T07:44:31.494Z,5.22
2023-03-22T07:48:00.164Z,5.15
2023-03-22T07:51:30.285Z,5.10
2023-03-22T07:54:35.633Z,5.43
2023-03-22T07:57:44.446Z,5.20
2023-03-22T08:00:51.287Z,5.40
2023-03-22T08:04:56.334Z,5.20
2023-03-22T08:08:26.686Z,5.20
2023-03-22T08:11:29.979Z,4.88
2023-03-22T08:14:37.370Z,4.55
2023-03-22T08:17:45.084Z,5.28
2023-03-22T08:20:56.503Z,5.00
2023-03-22T08:24:01.642Z,4.87
2023-03-22T08:27:10.741Z,4.75
2023-03-22T08:30:23.377Z,4.90
2023-03-22T08:33:26.726Z,4.43
2023-03-22T08:36:29.890Z,5.03
2023-03-22T08:39:39.712Z,4.80
2023-03-22T08:42:51.879Z,4.43
2023-03-22T08:45:56.457Z,4.50
2023-03-22T08:49:04.587Z,5.03
2023-03-22T08:52:12.783Z,5.00
2023-03-22T08:55:37.999Z,5.00
2023-03-22T08:58:47.415Z,5.07
2023-03-22T09:02:11.841Z,5.38
2023-03-22T09:05:16.558Z,4.65
2023-03-22T09:08:20.483Z,4.88
2023-03-22T09:11:35.129Z,4.63
2023-03-22T09:14:39.691Z,4.32
2023-03-22T09:17:49.209Z,4.40
2023-03-22T09:20:56.370Z,4.80
2023-03-22T09:24:05.225Z,5.10
2023-03-22T09:27:22.374Z,5.07
2023-03-22T09:30:27.498Z,4.10
2023-03-22T09:33:30.822Z,4.32
2023-03-22T09:36:34.410Z,4.32
2023-03-22T09:39:38.871Z,3.95
2023-03-22T09:42:50.891Z,4.37
2023-03-22T09:45:55.360Z,5.25
2023-03-22T09:49:52.727Z,5.05
2023-03-22T09:53:01.102Z,4.32
2023-03-22T09:56:10.164Z,4.45
2023-03-22T09:59:31.868Z,4.10
2023-03-22T10:02:48.217Z,3.95
2023-03-22T10:06:04.678Z,3.85
2023-03-22T10:09:28.733Z,3.90
2023-03-22T10:12:51.602Z,3.83
2023-03-22T10:15:57.280Z,4.00
2023-03-22T10:19:18.457Z,4.32
2023-03-22T10:22:26.849Z,4.20
2023-03-22T10:25:41.429Z,4.90
2023-03-22T10:28:48.328Z,4.75
2023-03-22T10:31:51.603Z,4.60
2023-03-22T10:34:54.886Z,4.47
2023-03-22T10:38:01.335Z,4.65
2023-03-22T10:41:04.570Z,4.40
2023-03-22T10:44:07.866Z,4.25
2023-03-22T10:47:11.883Z,3.90
2023-03-22T10:50:22.581Z,3.60
2023-03-22T10:53:38.407Z,4.93
2023-03-22T10:56:41.839Z,4.15
2023-03-22T10:59:55.589Z,4.18
2023-03-22T11:03:00.602Z,4.17
2023-03-22T11:06:13.764Z,4.18
2023-03-22T11:09:22.100Z,3.60
2023-03-22T11:12:25.268Z,3.88
2023-03-22T11:15:31.522Z,3.83
2023-03-22T11:18:35.284Z,3.60
2023-03-22T11:21:37.986Z,3.90
2023-03-22T11:24:42.488Z,3.00
2023-03-22T11:28:20.144Z,3.33
2023-03-22T11:31:26.091Z,3.30
2023-03-22T11:34:31.767Z,3.23
2023-03-22T11:37:42.440Z,3.03
2023-03-22T11:40:53.909Z,3.05
2023-03-22T11:44:03.691Z,3.30
2023-03-22T11:47:09.207Z,4.05
2023-03-22T11:50:28.667Z,4.10
2023-03-22T11:53:34.829Z,3.50
2023-03-22T11:56:43.138Z,3.40
2023-03-22T12:00:12.103Z,3.58
2023-03-22T12:03:20.004Z,3.38
2023-03-22T12:06:41.909Z,3.20
2023-03-22T12:10:02.095Z,3.28
2023-03-22T12:13:16.525Z,2.72
2023-03-22T12:16:24.840Z,3.05
2023-03-22T12:20:07.412Z,3.28
2023-03-22T12:23:18.571Z,3.40
2023-03-22T12:26:26.607Z,3.13
2023-03-22T12:29:29.766Z,3.40
2023-03-22T12:32:43.489Z,3.40
2023-03-22T12:35:50.605Z,3.67
2023-03-22T12:38:59.939Z,3.47
2023-03-22T12:42:51.708Z,3.17
2023-03-22T12:46:00.434Z,3.40
2023-03-22T12:49:46.353Z,2.65
2023-03-22T12:52:51.372Z,3.40
2023-03-22T12:55:55.781Z,3.40
2023-03-22T12:59:03.732Z,3.30
2023-03-22T13:02:34.491Z,3.10
2023-03-22T13:05:37.982Z,3.15
2023-03-22T13:09:02.570Z,3.03
2023-03-22T13:12:17.620Z,2.97
2023-03-22T13:15:41.184Z,2.60
2023-03-22T13:18:45.436Z,2.95
2023-03-22T13:21:50.032Z,3.03
2023-03-22T13:25:17.197Z,2.97
2023-03-22T13:28:28.492Z,2.83
2023-03-22T13:31:46.589Z,3.20
2023-03-22T13:34:52.614Z,2.50
2023-03-22T13:38:03.112Z,2.63
2023-03-22T13:41:22.042Z,2.92
2023-03-22T13:44:31.690Z,2.50
2023-03-22T13:47:45.387Z,2.72
2023-03-22T13:50:48.645Z,2.50
2023-03-22T13:54:14.032Z,2.33
2023-03-22T13:57:49.419Z,2.38
2023-03-22T14:00:55.660Z,2.73
2023-03-22T14:04:01.402Z,2.72
2023-03-22T14:07:28.843Z,2.72
2023-03-22T14:10:49.195Z,2.83
2023-03-22T14:14:04.391Z,3.00
2023-03-22T14:17:50.535Z,2.50
2023-03-22T14:21:07.304Z,4.10
